Time;durP1;ratioP1;P1;durP2;ratioP2;P2;SDS_P1;SDS_P2;PMS_P1;PMS_P2;Temp;Humidity;BMP_temperature;BMP_pressure;BME280_temperature;BME280_humidity;BME280_pressure;Samples;Min_cycle;Max_cycle;Signal;HPM_P1;HPM_P2
2022/01/13 00:01:23;;;;;;;42.25;10.48;;;6.80;99.90;;;;;;4995616;28;20033;-73
2022/01/13 00:03:49;;;;;;;47.15;8.10;;;6.80;99.90;;;;;;4996225;28;20034;-71
2022/01/13 00:06:15;;;;;;;33.63;6.47;;;6.80;99.90;;;;;;4994376;28;20117;-74
2022/01/13 00:08:40;;;;;;;31.48;7.40;;;6.90;99.90;;;;;;4995784;28;20030;-70
2022/01/13 00:11:06;;;;;;;36.17;7.53;;;6.90;99.90;;;;;;5015152;28;20033;-72
2022/01/13 00:13:45;;;;;;;35.47;6.88;;;6.80;99.90;;;;;;5015799;28;20038;-73
2022/01/13 00:18:48;;;;;;;35.92;7.70;;;6.80;99.90;;;;;;5013387;28;20042;-74
2022/01/13 00:21:35;;;;;;;51.40;7.30;;;6.80;99.90;;;;;;5015257;28;20029;-70
2022/01/13 00:24:02;;;;;;;50.22;8.02;;;6.80;99.90;;;;;;5015240;28;20076;-73
2022/01/13 00:26:30;;;;;;;25.20;4.97;;;6.80;99.90;;;;;;5013878;28;20065;-73
2022/01/13 00:28:57;;;;;;;42.75;7.18;;;6.80;99.90;;;;;;5001111;28;20456;-73
2022/01/13 00:31:30;;;;;;;59.13;7.32;;;6.80;99.90;;;;;;5015105;28;20033;-72
2022/01/13 00:33:57;;;;;;;38.25;6.47;;;6.80;99.90;;;;;;5015135;28;20022;-72
2022/01/13 00:36:30;;;;;;;40.92;7.00;;;6.70;99.90;;;;;;5014907;28;20062;-72
2022/01/13 00:38:59;;;;;;;38.17;6.78;;;6.70;99.90;;;;;;5009233;28;20129;-71
2022/01/13 00:41:29;;;;;;;31.05;6.50;;;6.70;99.90;;;;;;4995101;28;20026;-73
2022/01/13 00:43:59;;;;;;;34.30;6.18;;;6.70;99.90;;;;;;4995345;28;20027;-73
2022/01/13 00:46:28;;;;;;;39.42;6.60;;;6.70;99.90;;;;;;4995190;28;20034;-72
2022/01/13 00:48:55;;;;;;;32.83;6.15;;;6.70;99.90;;;;;;4999887;28;20030;-73
2022/01/13 00:51:22;;;;;;;40.67;7.25;;;6.70;99.90;;;;;;5014760;28;20048;-72
2022/01/13 00:53:49;;;;;;;46.83;7.22;;;6.70;99.90;;;;;;5014765;28;20044;-71
2022/01/13 00:56:16;;;;;;;58.25;8.23;;;6.80;99.90;;;;;;4997774;28;20084;-73
2022/01/13 00:58:41;;;;;;;48.45;8.18;;;6.70;99.90;;;;;;4997370;28;20503;-71
2022/01/13 01:01:08;;;;;;;44.83;8.30;;;6.70;99.90;;;;;;5014414;28;20088;-74
2022/01/13 01:03:36;;;;;;;44.13;8.30;;;6.70;99.90;;;;;;5014438;28;20465;-72
2022/01/13 01:06:03;;;;;;;47.17;7.45;;;6.70;99.90;;;;;;5014524;28;20030;-74
2022/01/13 01:08:33;;;;;;;42.50;6.75;;;6.70;99.90;;;;;;5012853;28;20133;-71
2022/01/13 01:11:01;;;;;;;39.45;7.10;;;6.80;99.90;;;;;;4993205;28;20030;-71
2022/01/13 01:13:29;;;;;;;41.47;7.13;;;6.70;99.90;;;;;;4994362;28;20026;-72
2022/01/13 01:15:59;;;;;;;41.47;7.22;;;6.70;99.90;;;;;;4998056;28;20042;-71
2022/01/13 01:29:12;;;;;;;44.92;8.57;;;6.70;99.90;;;;;;4998842;28;20026;-72
2022/01/13 01:31:40;;;;;;;50.05;8.45;;;6.70;99.90;;;;;;5014032;28;20021;-71
2022/01/13 01:36:52;;;;;;;47.70;8.18;;;6.70;99.90;;;;;;5014011;28;20037;-72
2022/01/13 01:39:18;;;;;;;57.40;9.07;;;6.70;99.90;;;;;;5012591;28;20045;-73
2022/01/13 01:41:46;;;;;;;43.80;9.70;;;6.70;99.90;;;;;;5012372;28;20040;-71
2022/01/13 01:44:29;;;;;;;52.55;8.52;;;6.70;99.90;;;;;;4994448;28;20050;-73
2022/01/13 01:46:55;;;;;;;54.78;9.20;;;6.70;99.90;;;;;;4994182;28;20025;-71
2022/01/13 01:49:24;;;;;;;50.10;9.52;;;6.60;99.90;;;;;;5000701;28;20030;-73
2022/01/13 01:51:53;;;;;;;50.78;9.77;;;6.70;99.90;;;;;;5013521;28;20025;-74
2022/01/13 01:54:19;;;;;;;48.38;10.73;;;6.70;99.90;;;;;;5013532;28;20038;-73
2022/01/13 01:56:45;;;;;;;82.65;12.20;;;6.70;99.90;;;;;;5013650;28;20022;-72
2022/01/13 01:59:18;;;;;;;57.70;10.65;;;6.70;99.90;;;;;;5007821;28;20118;-73
2022/01/13 02:01:45;;;;;;;51.20;10.85;;;6.70;99.90;;;;;;4993800;28;20026;-72
2022/01/13 02:04:12;;;;;;;52.28;11.18;;;6.70;99.90;;;;;;4994716;28;20109;-71
2022/01/13 02:06:38;;;;;;;53.15;10.57;;;6.70;99.90;;;;;;4995018;28;20034;-71
2022/01/13 02:09:07;;;;;;;45.65;11.18;;;6.80;99.90;;;;;;4993267;28;20421;-73
2022/01/13 02:11:41;;;;;;;60.42;11.77;;;6.70;99.90;;;;;;5009115;28;20034;-71
2022/01/13 02:14:35;;;;;;;48.53;10.57;;;6.70;99.90;;;;;;5012731;28;20022;-70
2022/01/13 02:17:13;;;;;;;45.35;11.10;;;6.70;99.90;;;;;;4993243;28;20129;-73
2022/01/13 02:19:42;;;;;;;88.65;13.70;;;6.80;99.90;;;;;;4993352;28;20066;-70
2022/01/13 02:22:07;;;;;;;48.42;11.13;;;6.80;99.90;;;;;;4993423;28;20365;-72
2022/01/13 02:24:34;;;;;;;46.30;10.90;;;6.90;99.90;;;;;;4993489;28;20049;-70
2022/01/13 02:27:00;;;;;;;65.80;11.95;;;6.90;99.90;;;;;;4991968;28;20034;-72
2022/01/13 02:29:26;;;;;;;55.28;11.43;;;6.90;99.90;;;;;;4993805;28;20101;-72
2022/01/13 02:31:52;;;;;;;76.00;14.18;;;7.00;99.90;;;;;;4993265;28;20065;-73
2022/01/13 02:34:18;;;;;;;54.97;11.07;;;6.90;99.90;;;;;;5005407;28;20112;-72
2022/01/13 02:36:45;;;;;;;76.72;15.20;;;6.90;99.90;;;;;;4992961;28;20570;-73
2022/01/13 02:39:11;;;;;;;61.00;11.50;;;6.90;99.90;;;;;;4993180;28;20034;-70
2022/01/13 02:41:36;;;;;;;56.58;11.05;;;6.90;99.90;;;;;;4992986;28;20033;-72
2022/01/13 02:44:11;;;;;;;59.40;12.35;;;6.90;99.90;;;;;;5007877;28;20037;-71
2022/01/13 02:49:09;;;;;;;67.50;12.38;;;6.90;99.90;;;;;;4993241;28;20031;-71
2022/01/13 02:51:36;;;;;;;68.13;13.25;;;6.90;99.90;;;;;;4993538;28;20097;-72
2022/01/13 02:54:03;;;;;;;49.65;12.15;;;6.90;99.90;;;;;;4993485;28;20030;-71
2022/01/13 02:56:29;;;;;;;93.72;16.80;;;6.90;99.90;;;;;;5011350;28;20033;-71
2022/01/13 02:58:56;;;;;;;73.38;14.48;;;7.00;99.90;;;;;;4999381;28;20445;-73
2022/01/13 03:01:22;;;;;;;48.22;12.73;;;7.10;99.90;;;;;;4993845;28;20491;-72
2022/01/13 03:03:47;;;;;;;57.10;13.00;;;7.10;99.90;;;;;;4991676;28;20053;-70
2022/01/13 03:06:15;;;;;;;62.97;13.55;;;7.10;99.90;;;;;;5008558;28;20056;-72
2022/01/13 03:08:46;;;;;;;57.33;12.13;;;7.10;99.90;;;;;;5012671;28;20026;-71
2022/01/13 03:11:14;;;;;;;54.50;13.32;;;7.10;99.90;;;;;;5004723;28;20026;-73
2022/01/13 03:13:39;;;;;;;43.65;13.52;;;7.20;99.90;;;;;;4993306;28;20036;-72
2022/01/13 03:16:08;;;;;;;65.97;15.65;;;7.20;99.90;;;;;;5007423;28;20047;-71
2022/01/13 03:18:35;;;;;;;59.33;15.50;;;7.10;99.90;;;;;;5012540;28;20034;-71
2022/01/13 03:21:02;;;;;;;68.93;14.52;;;7.20;99.90;;;;;;5006062;28;20128;-72
2022/01/13 03:23:28;;;;;;;77.32;15.10;;;7.20;99.90;;;;;;4992539;28;20030;-72
2022/01/13 03:25:54;;;;;;;69.88;14.82;;;7.20;99.90;;;;;;5005801;28;20052;-71
2022/01/13 03:28:29;;;;;;;73.75;15.35;;;7.20;99.90;;;;;;5012543;28;20038;-73
2022/01/13 03:30:57;;;;;;;46.22;12.80;;;7.20;99.90;;;;;;5012236;28;20034;-71
2022/01/13 03:33:23;;;;;;;56.70;14.63;;;7.20;99.90;;;;;;5012481;28;20022;-71
2022/01/13 03:35:49;;;;;;;70.38;15.32;;;7.20;99.90;;;;;;4999965;28;20113;-72
2022/01/13 03:38:15;;;;;;;88.82;18.10;;;7.20;99.90;;;;;;4992893;28;20552;-72
2022/01/13 03:40:41;;;;;;;63.00;13.57;;;7.20;99.90;;;;;;4993207;28;20037;-72
2022/01/13 03:43:07;;;;;;;73.20;14.20;;;7.20;99.90;;;;;;4992645;28;20472;-74
2022/01/13 03:45:33;;;;;;;66.00;15.85;;;7.20;99.90;;;;;;5000574;28;20022;-74
2022/01/13 03:48:00;;;;;;;60.53;14.35;;;7.20;99.90;;;;;;5012137;28;20518;-74
2022/01/13 03:50:26;;;;;;;67.57;12.82;;;7.10;99.90;;;;;;5012040;28;20122;-70
2022/01/13 03:53:19;;;;;;;61.88;15.38;;;7.10;99.90;;;;;;5014548;28;20479;-72
2022/01/13 03:56:11;;;;;;;67.90;14.43;;;7.10;99.90;;;;;;5001050;28;20035;-73
2022/01/13 03:58:43;;;;;;;70.97;16.33;;;7.10;99.90;;;;;;5012337;28;20052;-73
2022/01/13 04:01:23;;;;;;;93.63;16.27;;;7.10;99.90;;;;;;5014196;28;20029;-73
2022/01/13 04:03:49;;;;;;;67.50;16.27;;;7.10;99.90;;;;;;5015409;28;20025;-73
2022/01/13 04:06:16;;;;;;;73.93;16.35;;;7.10;99.90;;;;;;5015353;28;20036;-74
2022/01/13 04:08:41;;;;;;;95.68;16.13;;;7.10;99.90;;;;;;4999298;28;20046;-71
2022/01/13 04:11:15;;;;;;;91.57;16.85;;;7.10;99.90;;;;;;4995571;28;20030;-73
2022/01/13 04:13:48;;;;;;;62.92;14.23;;;7.10;99.90;;;;;;5004211;28;20432;-72
2022/01/13 04:16:19;;;;;;;100.68;16.38;;;7.10;99.90;;;;;;5015216;28;20050;-71
2022/01/13 04:18:47;;;;;;;78.97;14.98;;;7.10;99.90;;;;;;4998860;28;20476;-72
2022/01/13 04:21:13;;;;;;;61.17;14.02;;;7.10;99.90;;;;;;4995679;28;20038;-74
2022/01/13 04:23:40;;;;;;;63.65;12.63;;;7.10;99.90;;;;;;4995548;28;20428;-72
2022/01/13 04:26:07;;;;;;;85.28;16.00;;;7.10;99.90;;;;;;4994256;28;20030;-73
2022/01/13 04:28:33;;;;;;;60.97;14.02;;;7.20;99.90;;;;;;5009371;28;20037;-74
2022/01/13 04:31:02;;;;;;;80.38;13.80;;;7.20;99.90;;;;;;5003952;28;20034;-73
2022/01/13 04:33:32;;;;;;;76.55;13.85;;;7.20;99.90;;;;;;4995521;28;20045;-74
2022/01/13 04:35:59;;;;;;;74.45;12.48;;;7.20;99.90;;;;;;4995522;28;20030;-74
2022/01/13 04:38:24;;;;;;;80.28;15.63;;;7.20;99.90;;;;;;5007862;28;20042;-71
2022/01/13 04:40:55;;;;;;;100.07;13.50;;;7.30;99.90;;;;;;5013207;28;20038;-71
2022/01/13 04:43:23;;;;;;;67.57;13.00;;;7.20;99.90;;;;;;4995634;28;20030;-72
2022/01/13 04:46:10;;;;;;;74.15;12.13;;;7.20;99.90;;;;;;4995307;28;20088;-73
2022/01/13 04:48:39;;;;;;;75.55;13.32;;;7.30;99.90;;;;;;4994333;28;20494;-75
2022/01/13 04:51:04;;;;;;;42.45;10.40;;;7.30;99.90;;;;;;4994546;28;20026;-74
2022/01/13 04:53:30;;;;;;;71.47;13.65;;;7.20;99.90;;;;;;4994947;28;20373;-73
2022/01/13 04:55:58;;;;;;;79.38;14.30;;;7.30;99.90;;;;;;4993463;28;20121;-72
2022/01/13 04:58:23;;;;;;;53.45;9.13;;;7.20;99.90;;;;;;5003611;28;20037;-72
2022/01/13 05:00:49;;;;;;;86.85;14.88;;;7.20;99.90;;;;;;5014516;28;20025;-74
2022/01/13 05:03:15;;;;;;;70.38;12.10;;;7.20;99.90;;;;;;5013557;28;20037;-73
2022/01/13 05:05:41;;;;;;;66.88;13.68;;;7.20;99.90;;;;;;5014059;28;20041;-72
2022/01/13 05:08:06;;;;;;;76.40;12.82;;;7.30;99.90;;;;;;5007646;28;20061;-74
2022/01/13 05:10:32;;;;;;;78.07;15.27;;;7.30;99.90;;;;;;4994237;28;20057;-73
2022/01/13 05:12:58;;;;;;;70.40;13.75;;;7.30;99.90;;;;;;4994472;28;20066;-75
2022/01/13 05:15:27;;;;;;;68.80;13.20;;;7.30;99.90;;;;;;4994405;28;20472;-72
2022/01/13 05:18:39;;;;;;;81.47;12.77;;;7.30;99.90;;;;;;4998874;28;20076;-73
2022/01/13 05:21:06;;;;;;;66.68;13.00;;;7.30;99.90;;;;;;5013901;28;20042;-74
2022/01/13 05:23:32;;;;;;;78.07;12.55;;;7.30;99.90;;;;;;5002797;28;20035;-71
2022/01/13 05:25:58;;;;;;;72.68;13.77;;;7.30;99.90;;;;;;4994228;28;20077;-73
2022/01/13 05:28:24;;;;;;;67.55;11.40;;;7.30;99.90;;;;;;5001920;28;20108;-72
2022/01/13 05:30:50;;;;;;;107.65;14.10;;;7.30;99.90;;;;;;4998330;28;20050;-73
2022/01/13 05:33:16;;;;;;;83.00;14.90;;;7.40;99.90;;;;;;4994151;28;20038;-72
2022/01/13 05:35:42;;;;;;;71.30;13.70;;;7.40;99.90;;;;;;4999083;28;20038;-74
2022/01/13 05:38:09;;;;;;;86.43;12.85;;;7.40;99.90;;;;;;4994145;28;20042;-72
2022/01/13 05:40:36;;;;;;;105.47;13.88;;;7.50;99.90;;;;;;4993990;28;20033;-72
2022/01/13 05:43:03;;;;;;;74.00;13.10;;;7.40;99.90;;;;;;4994167;28;20030;-73
2022/01/13 05:45:30;;;;;;;70.13;13.20;;;7.40;99.90;;;;;;4998621;28;20025;-74
2022/01/13 05:47:58;;;;;;;76.07;15.10;;;7.50;99.90;;;;;;5013302;28;20084;-74
2022/01/13 05:50:24;;;;;;;59.33;11.68;;;7.50;99.90;;;;;;4995033;28;20026;-72
2022/01/13 05:52:50;;;;;;;79.35;13.88;;;7.50;99.90;;;;;;4993953;28;20475;-73
2022/01/13 05:55:16;;;;;;;60.45;14.73;;;7.50;99.90;;;;;;4996378;28;20114;-73
2022/01/13 05:57:43;;;;;;;69.95;14.57;;;7.50;99.90;;;;;;5002771;28;20118;-73
2022/01/13 06:00:11;;;;;;;79.00;13.75;;;7.60;99.90;;;;;;4994165;28;20117;-71
2022/01/13 06:02:37;;;;;;;82.50;14.02;;;7.60;99.90;;;;;;4992483;28;20034;-72
2022/01/13 06:05:03;;;;;;;78.70;14.25;;;7.60;99.90;;;;;;4994070;28;20081;-72
2022/01/13 06:07:28;;;;;;;78.25;12.45;;;7.70;99.90;;;;;;5009700;28;20030;-74
2022/01/13 06:09:54;;;;;;;87.75;16.13;;;7.60;99.90;;;;;;4994000;28;20033;-71
2022/01/13 06:12:31;;;;;;;65.93;13.40;;;7.60;99.90;;;;;;4993541;28;20110;-72
2022/01/13 06:14:56;;;;;;;69.78;14.20;;;7.60;99.90;;;;;;5008916;28;20460;-74
2022/01/13 06:17:22;;;;;;;67.15;12.85;;;7.60;99.90;;;;;;4994299;28;20041;-73
2022/01/13 06:19:47;;;;;;;62.65;13.02;;;7.70;99.90;;;;;;4993320;28;20057;-72
2022/01/13 06:22:13;;;;;;;61.47;12.63;;;7.60;99.90;;;;;;4993621;28;20105;-70
2022/01/13 06:24:38;;;;;;;73.38;12.75;;;7.60;99.90;;;;;;5008570;28;20049;-72
2022/01/13 06:27:04;;;;;;;61.70;12.68;;;7.60;99.90;;;;;;4993694;28;20034;-71
2022/01/13 06:29:30;;;;;;;102.70;14.85;;;7.60;99.90;;;;;;4993919;28;20026;-71
2022/01/13 06:31:56;;;;;;;98.93;15.57;;;7.60;99.90;;;;;;4994077;28;20042;-71
2022/01/13 06:34:22;;;;;;;49.45;8.55;;;7.70;99.90;;;;;;5007447;28;20025;-72
2022/01/13 06:36:47;;;;;;;77.20;14.05;;;7.70;99.90;;;;;;5012777;28;20065;-72
2022/01/13 06:39:13;;;;;;;68.35;13.07;;;7.80;99.90;;;;;;5012788;28;20040;-71
2022/01/13 06:41:40;;;;;;;93.85;14.18;;;7.80;99.90;;;;;;5013056;28;20089;-72
2022/01/13 06:44:06;;;;;;;98.18;13.45;;;7.80;99.90;;;;;;4999206;28;20142;-71
2022/01/13 06:46:32;;;;;;;126.10;18.13;;;7.80;99.90;;;;;;4993338;28;20419;-72
2022/01/13 06:48:58;;;;;;;81.75;13.90;;;7.80;99.90;;;;;;4993528;28;20038;-73
2022/01/13 06:51:23;;;;;;;57.67;12.05;;;7.70;99.90;;;;;;5010696;28;20066;-73
2022/01/13 06:53:49;;;;;;;79.18;13.60;;;7.80;99.90;;;;;;5002721;28;20042;-71
2022/01/13 06:56:15;;;;;;;85.90;14.25;;;7.80;99.90;;;;;;4993368;28;20030;-73
2022/01/13 06:58:44;;;;;;;88.10;14.57;;;7.80;99.90;;;;;;4992932;28;20063;-72
2022/01/13 07:01:10;;;;;;;68.07;13.10;;;7.70;99.90;;;;;;4995192;28;20041;-71
2022/01/13 07:03:35;;;;;;;79.00;15.10;;;7.80;99.90;;;;;;4993265;28;20034;-72
2022/01/13 07:06:03;;;;;;;82.93;16.52;;;7.80;99.90;;;;;;4992900;28;20030;-70
2022/01/13 07:08:29;;;;;;;80.25;14.20;;;7.80;99.90;;;;;;4992850;28;20121;-72
2022/01/13 07:10:55;;;;;;;75.68;14.05;;;7.80;99.90;;;;;;4995176;28;20126;-70
2022/01/13 07:13:21;;;;;;;65.65;14.85;;;7.80;99.90;;;;;;5012209;28;20054;-72
2022/01/13 07:15:47;;;;;;;76.00;14.45;;;7.90;99.90;;;;;;5011086;28;20454;-73
2022/01/13 07:18:13;;;;;;;70.50;14.43;;;7.90;99.90;;;;;;5012492;28;20049;-71
2022/01/13 07:20:40;;;;;;;81.10;15.50;;;7.90;99.90;;;;;;5010461;28;20087;-73
2022/01/13 07:23:06;;;;;;;63.83;12.68;;;7.90;99.90;;;;;;5001265;28;20124;-71
2022/01/13 07:25:32;;;;;;;79.05;13.02;;;7.90;99.90;;;;;;5000030;28;20188;-72
2022/01/13 07:27:58;;;;;;;72.68;14.98;;;7.90;99.90;;;;;;5001455;28;20046;-71
2022/01/13 07:30:24;;;;;;;64.22;13.32;;;7.90;99.90;;;;;;5001829;28;20096;-74
2022/01/13 07:32:49;;;;;;;94.90;14.77;;;7.80;99.90;;;;;;5007753;28;20139;-71
2022/01/13 07:35:15;;;;;;;97.10;16.15;;;7.80;99.90;;;;;;5007400;28;20061;-72
2022/01/13 07:37:42;;;;;;;66.40;15.15;;;7.80;99.90;;;;;;5004709;28;20022;-74
2022/01/13 07:40:13;;;;;;;65.05;14.48;;;7.90;99.90;;;;;;5004636;28;20034;-74
2022/01/13 07:42:46;;;;;;;57.90;14.25;;;7.90;99.90;;;;;;4999806;28;20032;-73
2022/01/13 07:45:14;;;;;;;78.20;15.10;;;7.80;99.90;;;;;;4996502;28;20018;-73
2022/01/13 07:47:40;;;;;;;72.65;15.68;;;7.80;99.90;;;;;;4996561;28;20026;-74
2022/01/13 07:50:08;;;;;;;83.07;15.90;;;7.80;99.90;;;;;;5003048;28;20030;-73
2022/01/13 07:52:34;;;;;;;66.10;14.77;;;7.80;99.90;;;;;;4995692;28;20018;-73
2022/01/13 07:55:00;;;;;;;74.05;14.63;;;7.80;99.90;;;;;;5014206;28;20026;-72
2022/01/13 07:57:25;;;;;;;81.57;15.20;;;7.90;99.90;;;;;;5006955;28;20531;-74
2022/01/13 07:59:52;;;;;;;69.93;14.20;;;7.90;99.90;;;;;;5000807;28;20041;-74
2022/01/13 08:02:18;;;;;;;64.15;14.80;;;8.00;99.90;;;;;;5012924;28;20026;-72
2022/01/13 08:04:44;;;;;;;80.25;15.27;;;8.00;99.90;;;;;;4996542;28;21775;-72
2022/01/13 08:07:10;;;;;;;89.32;15.85;;;8.00;99.90;;;;;;5009468;28;20044;-72
2022/01/13 08:09:35;;;;;;;62.13;14.00;;;7.90;99.90;;;;;;4994415;28;20034;-74
2022/01/13 08:12:01;;;;;;;69.38;15.40;;;7.90;99.90;;;;;;4994884;28;20029;-71
2022/01/13 08:14:27;;;;;;;78.25;14.63;;;7.90;99.90;;;;;;4995613;28;20101;-72
2022/01/13 08:16:57;;;;;;;67.95;15.95;;;7.90;99.90;;;;;;5004141;28;20061;-74
2022/01/13 08:22:07;;;;;;;72.97;15.15;;;7.90;99.90;;;;;;4995058;28;20029;-73
2022/01/13 08:24:32;;;;;;;71.85;14.90;;;7.90;99.90;;;;;;5002112;28;20022;-72
2022/01/13 08:26:58;;;;;;;82.97;16.27;;;7.90;99.90;;;;;;4995507;28;20057;-73
2022/01/13 08:29:23;;;;;;;62.58;11.93;;;8.00;99.90;;;;;;5005103;28;20034;-72
2022/01/13 08:31:49;;;;;;;65.97;13.57;;;8.00;99.90;;;;;;5010946;28;20388;-74
2022/01/13 08:34:16;;;;;;;68.65;15.00;;;8.10;99.90;;;;;;5013112;28;20064;-72
2022/01/13 08:36:42;;;;;;;62.47;13.57;;;8.00;99.90;;;;;;5014325;28;20037;-74
2022/01/13 08:39:08;;;;;;;63.50;14.02;;;8.10;99.90;;;;;;5014602;28;20044;-73
2022/01/13 08:41:34;;;;;;;48.63;11.52;;;8.00;99.90;;;;;;5014393;28;20026;-72
2022/01/13 08:43:59;;;;;;;68.20;15.38;;;8.10;99.90;;;;;;4994972;28;20043;-72
2022/01/13 08:46:26;;;;;;;67.57;15.32;;;8.00;99.90;;;;;;4994734;28;20034;-74
2022/01/13 08:48:52;;;;;;;60.78;15.15;;;8.10;99.90;;;;;;5008673;28;20371;-72
2022/01/13 08:51:18;;;;;;;69.65;18.08;;;8.20;99.90;;;;;;5008436;28;20033;-73
2022/01/13 08:53:45;;;;;;;59.33;15.63;;;8.20;99.90;;;;;;5009938;28;20033;-73
2022/01/13 08:56:11;;;;;;;67.60;16.85;;;8.20;99.90;;;;;;5001511;28;20101;-72
2022/01/13 08:58:37;;;;;;;68.97;18.40;;;8.20;99.90;;;;;;4998802;28;20058;-72
2022/01/13 09:01:02;;;;;;;67.95;17.00;;;8.30;99.90;;;;;;4995059;28;20034;-72
2022/01/13 09:03:28;;;;;;;71.95;18.05;;;8.30;99.90;;;;;;4994780;28;20696;-74
2022/01/13 09:05:54;;;;;;;69.97;17.42;;;8.40;99.90;;;;;;4994764;28;20034;-72
2022/01/13 09:08:19;;;;;;;78.60;18.60;;;8.40;99.90;;;;;;5014166;28;20141;-72
2022/01/13 09:57:27;;;;;;;52.58;14.20;;;8.00;99.90;;;;;;5091211;27;20771;-73
2022/01/13 09:59:55;;;;;;;48.60;16.88;;;8.10;99.90;;;;;;5106199;28;20073;-73
2022/01/13 10:02:21;;;;;;;55.33;13.98;;;8.20;99.90;;;;;;5108991;28;20138;-72
2022/01/13 10:04:50;;;;;;;50.53;15.23;;;8.30;99.90;;;;;;5094499;28;20108;-73
2022/01/13 10:07:30;;;;;;;39.97;13.05;;;8.40;99.90;;;;;;5090190;28;20061;-73
2022/01/13 10:09:58;;;;;;;55.08;16.25;;;8.50;99.90;;;;;;5105353;28;20028;-72
2022/01/13 10:12:34;;;;;;;46.40;15.27;;;8.60;99.90;;;;;;5110204;28;20028;-73
2022/01/13 10:17:29;;;;;;;42.85;15.48;;;8.80;99.90;;;;;;5089650;28;20028;-71
2022/01/13 10:19:57;;;;;;;45.03;16.25;;;8.90;99.90;;;;;;5090872;28;20479;-72
2022/01/13 10:22:32;;;;;;;44.67;16.83;;;8.90;99.90;;;;;;5089222;28;20035;-72
2022/01/13 10:24:58;;;;;;;52.30;17.42;;;9.00;99.90;;;;;;5103499;28;20043;-72
2022/01/13 10:27:33;;;;;;;46.85;16.10;;;8.90;99.90;;;;;;5109451;28;20376;-72
2022/01/13 10:30:02;;;;;;;52.63;16.75;;;9.00;99.90;;;;;;5095235;28;20032;-72
2022/01/13 10:32:39;;;;;;;52.45;17.60;;;8.90;99.90;;;;;;5081570;28;20383;-72
2022/01/13 10:35:11;;;;;;;42.95;16.30;;;8.90;99.90;;;;;;5103335;28;20033;-72
2022/01/13 10:37:38;;;;;;;;;;;8.90;99.90;;;;;;5109553;28;20028;-72
2022/01/13 10:40:08;;;;;;;50.13;16.50;;;8.90;99.90;;;;;;5089043;28;20299;-71
2022/01/13 10:44:59;;;;;;;40.15;15.20;;;9.00;99.90;;;;;;5089878;28;20115;-72
2022/01/13 10:47:30;;;;;;;40.13;15.15;;;9.00;99.90;;;;;;5088972;28;20040;-71
2022/01/13 10:50:01;;;;;;;42.05;14.93;;;9.10;99.90;;;;;;5105594;28;20055;-72
2022/01/13 10:52:28;;;;;;;39.35;14.40;;;9.10;99.90;;;;;;5109288;28;20027;-73
2022/01/13 10:55:07;;;;;;;44.42;17.05;;;9.10;99.90;;;;;;5092528;28;20032;-72
2022/01/13 10:57:33;;;;;;;43.90;15.88;;;9.20;99.90;;;;;;5087137;28;20044;-72
2022/01/13 11:00:00;;;;;;;43.13;15.55;;;9.20;99.90;;;;;;5104799;28;20111;-72
2022/01/13 11:02:26;;;;;;;40.90;13.82;;;9.20;99.90;;;;;;5109104;28;20028;-71
2022/01/13 11:04:52;;;;;;;34.45;13.63;;;9.20;99.90;;;;;;5094926;28;20024;-72
2022/01/13 11:07:24;;;;;;;40.42;14.40;;;9.10;99.90;;;;;;5083990;28;20036;-72
2022/01/13 11:09:56;;;;;;;43.72;15.18;;;9.20;99.90;;;;;;5093739;28;20036;-73
2022/01/13 11:12:30;;;;;;;36.22;14.18;;;9.10;99.90;;;;;;5095241;28;20072;-72
2022/01/13 11:15:02;;;;;;;41.97;15.35;;;9.20;99.90;;;;;;5091014;28;20020;-72
2022/01/13 11:17:28;;;;;;;;;;;9.10;99.90;;;;;;5072433;28;20036;-73
2022/01/13 11:19:56;;;;;;;40.28;15.13;;;9.10;99.90;;;;;;5074565;28;20267;-72
2022/01/13 11:22:22;;;;;;;39.97;13.55;;;9.10;99.90;;;;;;5081834;28;20032;-73
2022/01/13 11:24:48;;;;;;;39.65;13.80;;;9.10;99.90;;;;;;5074308;28;20032;-72
2022/01/13 11:27:17;;;;;;;38.83;13.90;;;9.10;99.90;;;;;;5080932;28;20424;-72
2022/01/13 11:29:45;;;;;;;35.30;13.88;;;9.10;99.90;;;;;;5079557;28;20028;-72
2022/01/13 11:32:11;;;;;;;26.48;11.43;;;9.00;99.90;;;;;;5074606;28;20024;-72
2022/01/13 11:34:38;;;;;;;37.40;15.13;;;9.00;99.90;;;;;;5074698;28;20025;-72
2022/01/13 11:37:05;;;;;;;42.50;15.75;;;9.00;99.90;;;;;;5074036;28;20033;-72
2022/01/13 11:39:42;;;;;;;37.70;14.50;;;9.10;99.90;;;;;;5075332;28;20028;-71
2022/01/13 11:42:11;;;;;;;37.00;14.65;;;9.20;99.90;;;;;;5074634;28;20028;-71
2022/01/13 11:44:38;;;;;;;33.10;12.90;;;9.20;99.90;;;;;;5077507;28;20564;-72
2022/01/13 11:47:22;;;;;;;32.53;14.30;;;9.30;99.90;;;;;;5094830;28;20020;-73
2022/01/13 11:52:42;;;;;;;33.58;14.75;;;9.50;99.90;;;;;;5074466;28;20033;-73
2022/01/13 11:55:33;;;;;;;36.80;15.45;;;9.60;99.90;;;;;;5075253;28;20058;-72
2022/01/13 11:58:11;;;;;;;39.15;15.32;;;9.60;99.90;;;;;;5077575;28;20059;-72
2022/01/13 12:00:38;;;;;;;36.13;15.43;;;9.70;99.90;;;;;;5074132;28;20029;-72
2022/01/13 12:03:22;;;;;;;35.58;14.30;;;9.80;99.90;;;;;;5073905;28;20035;-72
2022/01/13 12:05:48;;;;;;;26.88;11.75;;;9.80;99.90;;;;;;5073988;28;20112;-71
2022/01/13 12:08:56;;;;;;;33.15;14.82;;;9.70;99.90;;;;;;5073689;28;20119;-72
2022/01/13 12:11:45;;;;;;;34.47;15.32;;;9.60;99.90;;;;;;5002461;28;20042;-72
2022/01/13 12:14:23;;;;;;;33.50;13.25;;;9.60;99.90;;;;;;4982084;28;20520;-71
2022/01/13 12:16:59;;;;;;;32.60;12.20;;;9.60;99.90;;;;;;5052097;28;20780;-72
2022/01/13 12:22:07;;;;;;;34.55;12.95;;;9.40;99.90;;;;;;5230457;23;20078;-72
2022/01/13 12:24:48;;;;;;;34.47;12.63;;;9.40;99.90;;;;;;4931493;29;20075;-71
2022/01/13 12:27:17;;;;;;;37.50;13.50;;;9.30;99.90;;;;;;4950248;29;20067;-71
2022/01/13 12:30:07;;;;;;;40.05;14.77;;;9.30;99.90;;;;;;4949131;28;20024;-72
2022/01/13 12:32:46;;;;;;;37.15;14.43;;;9.40;99.90;;;;;;4945055;29;20031;-71
2022/01/13 12:35:15;;;;;;;27.52;10.65;;;9.50;99.90;;;;;;4933025;28;20076;-72
2022/01/13 12:37:42;;;;;;;33.28;12.70;;;9.50;99.90;;;;;;4938229;29;20039;-72
2022/01/13 12:40:12;;;;;;;30.98;13.30;;;9.40;99.90;;;;;;4939640;28;20020;-72
2022/01/13 12:42:51;;;;;;;28.90;13.77;;;9.40;99.90;;;;;;4934315;29;20028;-71
2022/01/13 12:45:29;;;;;;;31.10;12.98;;;9.50;99.90;;;;;;4936399;29;20032;-72
2022/01/13 12:48:10;;;;;;;32.55;12.85;;;9.50;99.90;;;;;;4953774;28;20382;-72
2022/01/13 12:50:38;;;;;;;33.17;13.52;;;9.50;99.90;;;;;;4945215;28;20027;-72
2022/01/13 12:53:08;;;;;;;31.55;12.88;;;9.50;99.90;;;;;;4949709;29;20114;-71
2022/01/13 12:55:39;;;;;;;37.15;14.60;;;9.50;99.90;;;;;;4949525;28;20039;-71
2022/01/13 12:58:05;;;;;;;34.30;13.20;;;9.40;99.90;;;;;;4953898;28;20387;-72
2022/01/13 13:00:31;;;;;;;38.72;14.18;;;9.50;99.90;;;;;;4938827;28;20028;-72
2022/01/13 13:03:08;;;;;;;34.65;13.20;;;9.40;99.90;;;;;;4922582;29;20645;-72
2022/01/13 13:05:48;;;;;;;38.38;13.63;;;9.40;99.90;;;;;;4933615;29;20042;-72
2022/01/13 13:08:17;;;;;;;38.33;13.65;;;9.40;99.90;;;;;;4934661;29;20082;-72
2022/01/13 13:10:57;;;;;;;38.33;14.00;;;9.50;99.90;;;;;;4934581;29;20030;-72
2022/01/13 13:13:24;;;;;;;37.78;12.43;;;9.50;99.90;;;;;;4935718;29;20028;-71
2022/01/13 13:25:56;;;;;;;34.97;11.50;;;9.10;99.90;;;;;;4097838;29;20418;-71
2022/01/13 13:28:36;;;;;;;34.60;11.82;;;9.20;99.90;;;;;;4954815;28;20070;-71
2022/01/13 13:31:12;;;;;;;34.17;12.10;;;9.10;99.90;;;;;;4953738;28;20528;-71
2022/01/13 13:33:47;;;;;;;31.65;13.18;;;9.00;99.90;;;;;;4954717;28;20455;-71
2022/01/13 13:36:15;;;;;;;34.53;11.75;;;9.00;99.90;;;;;;4953718;29;20039;-71
2022/01/13 13:38:52;;;;;;;41.58;13.77;;;9.00;99.90;;;;;;4970900;28;20038;-73
2022/01/13 13:41:19;;;;;;;40.83;13.95;;;9.00;99.90;;;;;;4973909;28;20035;-73
2022/01/13 13:43:45;;;;;;;42.85;13.02;;;8.90;99.90;;;;;;4956665;28;20498;-71
2022/01/13 13:46:13;;;;;;;37.38;13.38;;;8.90;99.90;;;;;;4954282;29;20035;-73
2022/01/13 13:48:41;;;;;;;34.53;12.82;;;8.90;99.90;;;;;;4970126;28;20102;-71
2022/01/13 13:54:52;;;;;;;38.27;13.00;;;8.90;99.90;;;;;;4935145;29;20039;-73
2022/01/13 13:57:18;;;;;;;37.60;13.73;;;8.90;99.90;;;;;;4942319;28;20035;-71
2022/01/13 13:59:49;;;;;;;38.63;13.52;;;8.90;99.90;;;;;;4956116;28;20036;-71
2022/01/13 14:02:30;;;;;;;44.10;14.38;;;8.90;99.90;;;;;;4951978;28;20031;-74
2022/01/13 14:05:00;;;;;;;38.08;14.63;;;8.90;99.90;;;;;;4953937;29;20086;-73
2022/01/13 14:07:30;;;;;;;36.65;12.50;;;8.90;99.90;;;;;;4954519;28;20035;-73
2022/01/13 14:10:17;;;;;;;41.72;14.18;;;8.90;99.90;;;;;;4953840;29;20036;-71
2022/01/13 14:26:04;;;;;;;46.30;18.63;;;8.80;99.90;;;;;;5045602;28;20971;-74
2022/01/13 14:28:31;;;;;;;48.60;16.83;;;9.50;99.90;;;;;;5040597;28;20044;-73
2022/01/13 14:31:00;;;;;;;43.92;15.07;;;9.40;99.90;;;;;;5028632;28;20387;-72
2022/01/13 14:33:27;;;;;;;36.28;14.73;;;9.30;99.90;;;;;;5049510;28;20095;-71